METAR stanice u blizini

 

LYBE - Beograd / Surčin, Srbija
Ažurirano: 14/04/2024 00:00
Vedro
Vedro
 Pravac vetra JJZ
Vetar: JJZ 6 km/h
Temperatura: 17°C
Tačka rose: 8°C
Vlažnost: 56%
Pritisak: 1025 hPa
Pregled: Vedro
Vidljivost: greater than 10 km
2024/04/13 22:00 LYBE 132200Z 21003KT 120V250 CAVOK 17/08 Q1025 NOSIG
LYBT - Beograd / Batajnica, Srbija
Ažurirano: 14/04/2024 00:00
Vedro
Vedro
 Pravac vetra J
Vetar: J 2 km/h
Temperatura: 12°C
Tačka rose: 8°C
Vlažnost: 77%
Pritisak: 1025 hPa
Pregled: Vedro
Vidljivost: greater than 10 km
2024/04/13 22:00 LYBT 132200Z 18001KT CAVOK 12/08 Q1025 NOSIG
LYVR - Vršac, Srbija
Ažurirano: 14/04/2024 00:00
Vedro
Vedro
 Pravac vetra ISI
Vetar: ISI 6 km/h
Temperatura: 10°C
Tačka rose: 9°C
Vlažnost: 94%
Pritisak: 1024 hPa
Pregled: Vedro
Vidljivost: greater than 10 km
2024/04/13 22:00 LYVR 132200Z AUTO 06003KT CAVOK 10/09 Q1024
 
LYKV - Lađevci, Srbija
Ažurirano: 14/04/2024 00:00
Vedro
Vedro
 Pravac vetra SSI
Vetar: SSI 2 km/h
Temperatura: 10°C
Tačka rose: 8°C
Vlažnost: 88%
Pritisak: 1026 hPa
Pregled: Vedro
Vidljivost: greater than 10 km
2024/04/13 22:00 LYKV 132200Z 02001KT CAVOK 10/08 Q1026 NOSIG
LYNI - Niš, Srbija
Ažurirano: 14/04/2024 00:00
Vedro
Vedro
 Pravac vetra I
Vetar: I 4 km/h
Temperatura: 14°C
Tačka rose: 8°C
Vlažnost: 67%
Pritisak: 1026 hPa
Pregled: Vedro
Vidljivost: greater than 10 km
2024/04/13 22:00 LYNI 132200Z 10002KT CAVOK 14/08 Q1026 NOSIG
BKPR - Priština, Srbija
Ažurirano: 14/04/2024 00:00
Vedro
Vedro
 Pravac vetra Z
Vetar: Z 6 km/h
Temperatura: 13°C
Tačka rose: 7°C
Vlažnost: 67%
Pritisak: 1027 hPa
Pregled: Vedro
Vidljivost: greater than 10 km
2024/04/13 22:00 BKPR 132200Z 28003KT CAVOK 13/07 Q1027 NOSIG
 
LHPP - Pecs / Pogany, Hungary
Ažurirano: 13/04/2024 23:45
Vedro
Vedro
 Pravac vetra ZSZ
Vetar: ZSZ 7 km/h
Temperatura: 15°C
Tačka rose: 8°C
Vlažnost: 63%
Pritisak: 1025 hPa
Pregled: Vedro
Vidljivost: greater than 10 km
2024/04/13 21:45 LHPP 132145Z AUTO 30004KT 220V320 CAVOK 15/08 Q1025
LHUD - Szeged, Hungary
Ažurirano: 04/07/2019 01:45
NOT Current
Vedro
Vedro
 Pravac vetra S
Vetar: S 7 km/h
Temperatura: 18°C
Tačka rose: 13°C
Vlažnost: 73%
Pritisak: 1019 hPa
Pregled: Vedro
Vidljivost: greater than 10 km
2019/07/03 23:45 LHUD 032345Z 35004KT CAVOK 18/13 Q1019
LRTR - Timisoara, Romania
Ažurirano: 13/04/2024 23:30
Vedro
Vedro
 Pravac vetra varies
Vetar: varies 2 km/h
Temperatura: 11°C
Tačka rose: 9°C
Vlažnost: 88%
Pritisak: 1024 hPa
Pregled: Vedro
Vidljivost: greater than 10 km
2024/04/13 21:30 LRTR 132130Z VRB01KT CAVOK 11/09 Q1024
 
LRCV - Craiova, Romania
Ažurirano: 13/04/2024 23:30
Vedro
Vedro
 Pravac vetra SSZ
Vetar: SSZ 9 km/h
Temperatura: 16°C
Tačka rose: 7°C
Vlažnost: 55%
Pritisak: 1022 hPa
Pregled: Vedro
Vidljivost: greater than 10 km
2024/04/13 21:30 LRCV 132130Z 34005KT CAVOK 16/07 Q1022
LBSF - Sofia, Bulgaria
Ažurirano: 14/04/2024 00:00
Vedro
Vedro
 Pravac vetra Z
Vetar: Z 17 km/h
Temperatura: 14°C
Tačka rose: 8°C
Vlažnost: 67%
Pritisak: 1025 hPa
Oblaci: Vedro
Vidljivost: 10 km
2024/04/13 22:00 LBSF 132200Z AUTO 27009KT 9999 NCD 14/08 Q1025 NOSIG
LWSK - Skoplje, Makedonija
Ažurirano: 13/04/2024 23:50
Vedro
Vedro
 Pravac vetra SI
Vetar: SI 15 km/h
Temperatura: 16°C
Tačka rose: 10°C
Vlažnost: 68%
Pritisak: 1025 hPa
Pregled: Vedro
Vidljivost: greater than 10 km
2024/04/13 21:50 LWSK 132150Z 04008KT CAVOK 16/10 Q1025 NOSIG
 
LYPG - Podgorica, Crna Gora
Ažurirano: 14/04/2024 00:00
Vedro
Vedro
 Pravac vetra SZ
Vetar: SZ 6 km/h
Temperatura: 17°C
Tačka rose: 11°C
Vlažnost: 68%
Pritisak: 1023 hPa
Pregled: Vedro
Vidljivost: greater than 10 km
2024/04/13 22:00 LYPG 132200Z 31003KT 280V340 CAVOK 17/11 Q1023 NOSIG
LQSA - Sarajevo, Bosna i Hercegovina
Ažurirano: 14/04/2024 00:00
Vedro
Vedro
 Pravac vetra varies
Vetar: varies 4 km/h
Temperatura: 10°C
Tačka rose: 7°C
Vlažnost: 82%
Pritisak: 1027 hPa
Pregled: Vedro
Vidljivost: greater than 10 km
2024/04/13 22:00 LQSA 132200Z VRB02KT CAVOK 10/07 Q1027
LDOS - Osijek, Hrvatksa
Ažurirano: 14/04/2024 00:00
Vedro
Vedro
 Pravac vetra JZ
Vetar: JZ 9 km/h
Temperatura: 13°C
Tačka rose: 7°C
Vlažnost: 67%
Pritisak: 1024 hPa
Pregled: Vedro
Vidljivost: greater than 10 km
2024/04/13 22:00 LDOS 132200Z 23005KT CAVOK 13/07 Q1024